sensor_id;sensor_type;location;lat;lon;timestamp;temperature;humidity
60495;DHT22;46342;49.046;11.920;2023-06-24T00:02:16;18.90;59.40
60495;DHT22;46342;49.046;11.920;2023-06-24T00:04:42;18.90;58.90
60495;DHT22;46342;49.046;11.920;2023-06-24T00:07:07;18.90;58.90
60495;DHT22;46342;49.046;11.920;2023-06-24T00:09:33;18.90;59.00
60495;DHT22;46342;49.046;11.920;2023-06-24T00:11:59;18.90;59.00
60495;DHT22;46342;49.046;11.920;2023-06-24T00:14:26;18.90;59.10
60495;DHT22;46342;49.046;11.920;2023-06-24T00:16:52;18.90;59.10
60495;DHT22;46342;49.046;11.920;2023-06-24T00:19:23;18.90;59.10
60495;DHT22;46342;49.046;11.920;2023-06-24T00:21:49;19.00;59.40
60495;DHT22;46342;49.046;11.920;2023-06-24T00:24:20;18.90;59.10
60495;DHT22;46342;49.046;11.920;2023-06-24T00:26:54;18.90;59.10
60495;DHT22;46342;49.046;11.920;2023-06-24T00:29:19;18.90;59.10
60495;DHT22;46342;49.046;11.920;2023-06-24T00:31:45;18.90;59.10
60495;DHT22;46342;49.046;11.920;2023-06-24T00:34:11;18.90;59.20
60495;DHT22;46342;49.046;11.920;2023-06-24T00:36:36;19.00;59.30
60495;DHT22;46342;49.046;11.920;2023-06-24T00:39:03;18.90;59.30
60495;DHT22;46342;49.046;11.920;2023-06-24T00:41:30;18.90;59.30
60495;DHT22;46342;49.046;11.920;2023-06-24T00:43:56;18.90;59.40
60495;DHT22;46342;49.046;11.920;2023-06-24T00:46:25;18.90;59.30
60495;DHT22;46342;49.046;11.920;2023-06-24T00:48:55;18.90;59.40
60495;DHT22;46342;49.046;11.920;2023-06-24T00:51:22;19.00;59.60
60495;DHT22;46342;49.046;11.920;2023-06-24T00:53:53;18.90;59.90
60495;DHT22;46342;49.046;11.920;2023-06-24T00:56:20;18.90;59.40
60495;DHT22;46342;49.046;11.920;2023-06-24T00:58:47;18.90;59.40
60495;DHT22;46342;49.046;11.920;2023-06-24T01:01:12;18.90;59.40
60495;DHT22;46342;49.046;11.920;2023-06-24T01:03:40;18.90;59.40
60495;DHT22;46342;49.046;11.920;2023-06-24T01:06:05;18.90;59.40
60495;DHT22;46342;49.046;11.920;2023-06-24T01:08:31;18.90;59.40
60495;DHT22;46342;49.046;11.920;2023-06-24T01:10:57;18.90;59.40
60495;DHT22;46342;49.046;11.920;2023-06-24T01:13:22;18.90;59.50
60495;DHT22;46342;49.046;11.920;2023-06-24T01:15:49;18.90;59.50
60495;DHT22;46342;49.046;11.920;2023-06-24T01:18:46;18.90;59.60
60495;DHT22;46342;49.046;11.920;2023-06-24T01:32:54;18.90;60.00
60495;DHT22;46342;49.046;11.920;2023-06-24T01:35:25;18.90;59.80
60495;DHT22;46342;49.046;11.920;2023-06-24T01:37:52;18.90;59.70
60495;DHT22;46342;49.046;11.920;2023-06-24T01:40:25;18.90;59.60
60495;DHT22;46342;49.046;11.920;2023-06-24T01:42:52;18.90;59.60
60495;DHT22;46342;49.046;11.920;2023-06-24T01:45:23;18.90;59.70
60495;DHT22;46342;49.046;11.920;2023-06-24T01:48:05;18.90;60.00
60495;DHT22;46342;49.046;11.920;2023-06-24T01:50:33;18.90;59.90
60495;DHT22;46342;49.046;11.920;2023-06-24T01:53:04;18.90;59.80
60495;DHT22;46342;49.046;11.920;2023-06-24T01:55:31;18.90;59.80
60495;DHT22;46342;49.046;11.920;2023-06-24T01:57:57;18.90;59.90
60495;DHT22;46342;49.046;11.920;2023-06-24T02:00:24;18.90;60.00
60495;DHT22;46342;49.046;11.920;2023-06-24T02:02:51;18.90;59.50
60495;DHT22;46342;49.046;11.920;2023-06-24T02:05:18;18.80;59.50
60495;DHT22;46342;49.046;11.920;2023-06-24T02:07:46;18.90;59.70
60495;DHT22;46342;49.046;11.920;2023-06-24T02:10:14;18.80;59.80
60495;DHT22;46342;49.046;11.920;2023-06-24T02:12:40;18.80;60.60
60495;DHT22;46342;49.046;11.920;2023-06-24T02:15:07;18.80;59.80
60495;DHT22;46342;49.046;11.920;2023-06-24T02:17:34;18.80;59.90
60495;DHT22;46342;49.046;11.920;2023-06-24T02:20:01;18.80;59.90
60495;DHT22;46342;49.046;11.920;2023-06-24T02:22:30;18.80;59.90
60495;DHT22;46342;49.046;11.920;2023-06-24T02:24:56;18.80;59.90
60495;DHT22;46342;49.046;11.920;2023-06-24T02:27:22;18.80;60.00
60495;DHT22;46342;49.046;11.920;2023-06-24T02:29:48;18.80;59.90
60495;DHT22;46342;49.046;11.920;2023-06-24T02:32:15;18.80;59.90
60495;DHT22;46342;49.046;11.920;2023-06-24T02:34:40;18.80;59.90
60495;DHT22;46342;49.046;11.920;2023-06-24T02:37:06;18.80;59.90
60495;DHT22;46342;49.046;11.920;2023-06-24T02:39:31;18.70;60.70
60495;DHT22;46342;49.046;11.920;2023-06-24T02:41:57;18.70;59.90
60495;DHT22;46342;49.046;11.920;2023-06-24T02:44:22;18.70;59.90
60495;DHT22;46342;49.046;11.920;2023-06-24T02:46:49;18.70;59.90
60495;DHT22;46342;49.046;11.920;2023-06-24T02:49:16;18.80;60.00
60495;DHT22;46342;49.046;11.920;2023-06-24T02:51:43;18.70;60.00
60495;DHT22;46342;49.046;11.920;2023-06-24T02:54:10;18.70;60.00
60495;DHT22;46342;49.046;11.920;2023-06-24T02:56:37;18.70;60.10
60495;DHT22;46342;49.046;11.920;2023-06-24T02:59:07;18.70;60.00
60495;DHT22;46342;49.046;11.920;2023-06-24T03:01:34;18.70;60.00
60495;DHT22;46342;49.046;11.920;2023-06-24T03:04:04;18.70;60.10
60495;DHT22;46342;49.046;11.920;2023-06-24T03:06:30;18.70;60.10
60495;DHT22;46342;49.046;11.920;2023-06-24T03:08:57;18.70;60.10
60495;DHT22;46342;49.046;11.920;2023-06-24T03:11:23;18.70;60.30
60495;DHT22;46342;49.046;11.920;2023-06-24T03:13:49;18.70;60.20
60495;DHT22;46342;49.046;11.920;2023-06-24T03:16:14;18.80;60.40
60495;DHT22;46342;49.046;11.920;2023-06-24T03:18:41;18.70;60.20
60495;DHT22;46342;49.046;11.920;2023-06-24T03:21:10;18.70;60.30
60495;DHT22;46342;49.046;11.920;2023-06-24T03:23:36;18.70;60.30
60495;DHT22;46342;49.046;11.920;2023-06-24T03:26:01;18.70;60.20
60495;DHT22;46342;49.046;11.920;2023-06-24T03:28:29;18.70;60.20
60495;DHT22;46342;49.046;11.920;2023-06-24T03:30:56;18.70;60.30
60495;DHT22;46342;49.046;11.920;2023-06-24T03:33:21;18.70;60.20
60495;DHT22;46342;49.046;11.920;2023-06-24T03:35:47;18.70;60.20
60495;DHT22;46342;49.046;11.920;2023-06-24T03:38:12;18.70;60.20
60495;DHT22;46342;49.046;11.920;2023-06-24T03:40:38;18.70;60.30
60495;DHT22;46342;49.046;11.920;2023-06-24T03:43:03;18.70;60.30
60495;DHT22;46342;49.046;11.920;2023-06-24T03:45:29;18.70;60.40
60495;DHT22;46342;49.046;11.920;2023-06-24T03:47:54;18.70;60.50
60495;DHT22;46342;49.046;11.920;2023-06-24T03:50:20;18.70;60.50
60495;DHT22;46342;49.046;11.920;2023-06-24T03:52:46;18.70;60.50
60495;DHT22;46342;49.046;11.920;2023-06-24T03:55:11;18.70;60.50
60495;DHT22;46342;49.046;11.920;2023-06-24T03:57:37;18.70;60.50
60495;DHT22;46342;49.046;11.920;2023-06-24T04:00:03;18.70;60.70
60495;DHT22;46342;49.046;11.920;2023-06-24T04:02:41;18.70;60.60
60495;DHT22;46342;49.046;11.920;2023-06-24T04:05:08;18.70;60.50
60495;DHT22;46342;49.046;11.920;2023-06-24T04:07:33;18.70;60.50
60495;DHT22;46342;49.046;11.920;2023-06-24T04:10:02;18.70;60.50
60495;DHT22;46342;49.046;11.920;2023-06-24T04:12:29;18.70;60.70
60495;DHT22;46342;49.046;11.920;2023-06-24T04:14:54;18.70;60.50
60495;DHT22;46342;49.046;11.920;2023-06-24T04:17:20;18.70;60.50
60495;DHT22;46342;49.046;11.920;2023-06-24T04:19:45;18.70;60.50
60495;DHT22;46342;49.046;11.920;2023-06-24T04:22:11;18.70;60.50
60495;DHT22;46342;49.046;11.920;2023-06-24T04:24:37;18.70;60.50
60495;DHT22;46342;49.046;11.920;2023-06-24T04:27:02;18.70;60.60
60495;DHT22;46342;49.046;11.920;2023-06-24T04:29:28;18.70;60.70
60495;DHT22;46342;49.046;11.920;2023-06-24T04:31:53;18.70;60.70
60495;DHT22;46342;49.046;11.920;2023-06-24T04:34:19;18.70;60.70
60495;DHT22;46342;49.046;11.920;2023-06-24T04:36:44;18.70;60.70
60495;DHT22;46342;49.046;11.920;2023-06-24T04:39:10;18.70;60.80
60495;DHT22;46342;49.046;11.920;2023-06-24T04:41:36;18.70;60.80
60495;DHT22;46342;49.046;11.920;2023-06-24T04:44:01;18.70;61.80
60495;DHT22;46342;49.046;11.920;2023-06-24T04:46:27;18.70;61.80
60495;DHT22;46342;49.046;11.920;2023-06-24T04:48:53;18.70;60.90
60495;DHT22;46342;49.046;11.920;2023-06-24T04:51:18;18.80;61.00
60495;DHT22;46342;49.046;11.920;2023-06-24T04:53:44;18.80;61.10
60495;DHT22;46342;49.046;11.920;2023-06-24T04:56:09;18.80;61.10
60495;DHT22;46342;49.046;11.920;2023-06-24T04:58:35;18.80;61.20
60495;DHT22;46342;49.046;11.920;2023-06-24T05:01:00;18.80;61.10
60495;DHT22;46342;49.046;11.920;2023-06-24T05:03:26;18.80;61.20
60495;DHT22;46342;49.046;11.920;2023-06-24T05:05:51;18.90;61.30
60495;DHT22;46342;49.046;11.920;2023-06-24T05:08:17;18.90;61.30
60495;DHT22;46342;49.046;11.920;2023-06-24T05:10:42;18.90;61.40
60495;DHT22;46342;49.046;11.920;2023-06-24T05:13:08;18.90;61.40
60495;DHT22;46342;49.046;11.920;2023-06-24T05:15:33;18.90;61.40
60495;DHT22;46342;49.046;11.920;2023-06-24T05:17:59;19.00;61.50
60495;DHT22;46342;49.046;11.920;2023-06-24T05:20:24;19.00;61.50
60495;DHT22;46342;49.046;11.920;2023-06-24T05:22:50;19.00;61.40
60495;DHT22;46342;49.046;11.920;2023-06-24T05:25:16;19.00;61.40
60495;DHT22;46342;49.046;11.920;2023-06-24T05:27:42;19.00;61.50
60495;DHT22;46342;49.046;11.920;2023-06-24T05:30:09;19.10;61.50
60495;DHT22;46342;49.046;11.920;2023-06-24T05:32:35;19.10;61.50
60495;DHT22;46342;49.046;11.920;2023-06-24T05:35:01;19.10;61.50
60495;DHT22;46342;49.046;11.920;2023-06-24T05:37:26;19.20;61.60
60495;DHT22;46342;49.046;11.920;2023-06-24T05:39:52;19.10;61.50
60495;DHT22;46342;49.046;11.920;2023-06-24T05:42:18;19.20;61.60
60495;DHT22;46342;49.046;11.920;2023-06-24T05:44:43;19.30;62.60
60495;DHT22;46342;49.046;11.920;2023-06-24T05:47:09;19.30;62.60
60495;DHT22;46342;49.046;11.920;2023-06-24T05:49:34;19.30;61.60
60495;DHT22;46342;49.046;11.920;2023-06-24T05:52:00;19.30;61.60
60495;DHT22;46342;49.046;11.920;2023-06-24T05:54:25;19.40;61.60
60495;DHT22;46342;49.046;11.920;2023-06-24T05:56:51;19.40;61.50
60495;DHT22;46342;49.046;11.920;2023-06-24T05:59:17;19.40;61.30
60495;DHT22;46342;49.046;11.920;2023-06-24T06:01:42;19.40;61.20
60495;DHT22;46342;49.046;11.920;2023-06-24T06:04:08;19.50;61.30
60495;DHT22;46342;49.046;11.920;2023-06-24T06:06:33;19.50;61.30
60495;DHT22;46342;49.046;11.920;2023-06-24T06:08:59;19.50;61.30
60495;DHT22;46342;49.046;11.920;2023-06-24T06:11:24;19.50;61.30
60495;DHT22;46342;49.046;11.920;2023-06-24T06:13:50;19.60;61.40
60495;DHT22;46342;49.046;11.920;2023-06-24T06:16:17;19.60;61.40
60495;DHT22;46342;49.046;11.920;2023-06-24T06:18:43;19.60;61.20
60495;DHT22;46342;49.046;11.920;2023-06-24T06:21:08;19.60;61.00
60495;DHT22;46342;49.046;11.920;2023-06-24T06:23:34;19.70;61.00
60495;DHT22;46342;49.046;11.920;2023-06-24T06:25:59;19.70;60.80
60495;DHT22;46342;49.046;11.920;2023-06-24T06:28:25;19.70;60.80
60495;DHT22;46342;49.046;11.920;2023-06-24T06:30:50;19.70;60.70
60495;DHT22;46342;49.046;11.920;2023-06-24T06:33:16;19.80;60.70
60495;DHT22;46342;49.046;11.920;2023-06-24T06:35:41;19.80;60.70
60495;DHT22;46342;49.046;11.920;2023-06-24T06:38:07;19.80;60.70
60495;DHT22;46342;49.046;11.920;2023-06-24T06:40:33;19.80;60.70
60495;DHT22;46342;49.046;11.920;2023-06-24T06:42:58;19.90;60.70
60495;DHT22;46342;49.046;11.920;2023-06-24T06:45:24;19.90;60.60
60495;DHT22;46342;49.046;11.920;2023-06-24T06:47:50;20.00;60.60
60495;DHT22;46342;49.046;11.920;2023-06-24T06:50:16;20.00;60.30
60495;DHT22;46342;49.046;11.920;2023-06-24T06:52:41;20.00;60.10
60495;DHT22;46342;49.046;11.920;2023-06-24T06:55:07;20.10;60.10
60495;DHT22;46342;49.046;11.920;2023-06-24T06:57:33;20.10;59.90
60495;DHT22;46342;49.046;11.920;2023-06-24T06:59:58;20.20;60.00
60495;DHT22;46342;49.046;11.920;2023-06-24T07:02:24;20.20;59.90
60495;DHT22;46342;49.046;11.920;2023-06-24T07:04:49;20.30;60.10
60495;DHT22;46342;49.046;11.920;2023-06-24T07:07:16;20.30;60.10
60495;DHT22;46342;49.046;11.920;2023-06-24T07:09:42;20.40;60.20
60495;DHT22;46342;49.046;11.920;2023-06-24T07:12:08;20.50;60.00
60495;DHT22;46342;49.046;11.920;2023-06-24T07:14:33;20.50;59.90
60495;DHT22;46342;49.046;11.920;2023-06-24T07:16:59;20.60;59.90
60495;DHT22;46342;49.046;11.920;2023-06-24T07:19:25;20.70;59.90
60495;DHT22;46342;49.046;11.920;2023-06-24T07:21:51;20.70;59.80
60495;DHT22;46342;49.046;11.920;2023-06-24T07:24:17;20.80;59.80
60495;DHT22;46342;49.046;11.920;2023-06-24T07:26:42;20.90;59.60
60495;DHT22;46342;49.046;11.920;2023-06-24T07:29:08;20.90;59.50
60495;DHT22;46342;49.046;11.920;2023-06-24T07:31:35;21.00;59.50
60495;DHT22;46342;49.046;11.920;2023-06-24T07:34:01;21.00;59.40
60495;DHT22;46342;49.046;11.920;2023-06-24T07:36:26;21.10;59.40
60495;DHT22;46342;49.046;11.920;2023-06-24T07:38:52;21.20;59.50
60495;DHT22;46342;49.046;11.920;2023-06-24T07:41:18;21.30;59.50
60495;DHT22;46342;49.046;11.920;2023-06-24T07:43:43;21.30;59.30
60495;DHT22;46342;49.046;11.920;2023-06-24T07:46:09;21.40;59.30
60495;DHT22;46342;49.046;11.920;2023-06-24T07:48:34;21.50;59.20
60495;DHT22;46342;49.046;11.920;2023-06-24T07:51:00;21.60;59.30
60495;DHT22;46342;49.046;11.920;2023-06-24T07:53:26;21.60;59.10
60495;DHT22;46342;49.046;11.920;2023-06-24T07:55:52;21.70;59.10
60495;DHT22;46342;49.046;11.920;2023-06-24T07:58:17;21.80;59.20
60495;DHT22;46342;49.046;11.920;2023-06-24T08:00:45;21.90;59.10
60495;DHT22;46342;49.046;11.920;2023-06-24T08:03:12;22.00;59.10
60495;DHT22;46342;49.046;11.920;2023-06-24T08:05:37;22.10;59.10
60495;DHT22;46342;49.046;11.920;2023-06-24T08:08:05;22.10;59.00
60495;DHT22;46342;49.046;11.920;2023-06-24T08:10:30;22.20;58.80
60495;DHT22;46342;49.046;11.920;2023-06-24T08:12:56;22.30;58.60
60495;DHT22;46342;49.046;11.920;2023-06-24T08:15:21;22.40;58.50
60495;DHT22;46342;49.046;11.920;2023-06-24T08:17:54;22.40;58.30
60495;DHT22;46342;49.046;11.920;2023-06-24T08:20:21;22.50;58.10
60495;DHT22;46342;49.046;11.920;2023-06-24T08:22:47;22.60;58.30
60495;DHT22;46342;49.046;11.920;2023-06-24T08:25:12;22.60;58.10
60495;DHT22;46342;49.046;11.920;2023-06-24T08:27:38;22.70;57.90
60495;DHT22;46342;49.046;11.920;2023-06-24T08:30:05;22.80;57.70
60495;DHT22;46342;49.046;11.920;2023-06-24T08:32:31;22.80;57.30
60495;DHT22;46342;49.046;11.920;2023-06-24T08:34:56;22.80;57.40
60495;DHT22;46342;49.046;11.920;2023-06-24T08:37:22;22.90;57.10
60495;DHT22;46342;49.046;11.920;2023-06-24T08:39:47;22.90;56.90
60495;DHT22;46342;49.046;11.920;2023-06-24T08:42:13;23.00;56.80
60495;DHT22;46342;49.046;11.920;2023-06-24T08:44:39;23.10;56.80
60495;DHT22;46342;49.046;11.920;2023-06-24T08:47:04;23.10;56.70
60495;DHT22;46342;49.046;11.920;2023-06-24T08:49:30;23.20;56.70
60495;DHT22;46342;49.046;11.920;2023-06-24T08:52:11;23.30;56.60
60495;DHT22;46342;49.046;11.920;2023-06-24T08:54:40;23.40;55.50
60495;DHT22;46342;49.046;11.920;2023-06-24T08:57:06;23.40;55.90
60495;DHT22;46342;49.046;11.920;2023-06-24T08:59:36;23.40;55.80
60495;DHT22;46342;49.046;11.920;2023-06-24T09:02:02;23.50;55.40
60495;DHT22;46342;49.046;11.920;2023-06-24T09:04:27;23.50;55.90
60495;DHT22;46342;49.046;11.920;2023-06-24T09:06:53;23.60;55.90
60495;DHT22;46342;49.046;11.920;2023-06-24T09:09:20;23.70;55.90
60495;DHT22;46342;49.046;11.920;2023-06-24T09:11:56;23.80;55.80
60495;DHT22;46342;49.046;11.920;2023-06-24T09:14:23;23.80;54.90
60495;DHT22;46342;49.046;11.920;2023-06-24T09:16:57;23.90;55.60
60495;DHT22;46342;49.046;11.920;2023-06-24T09:19:24;24.00;54.70
60495;DHT22;46342;49.046;11.920;2023-06-24T09:21:53;24.10;55.10
60495;DHT22;46342;49.046;11.920;2023-06-24T09:24:19;24.20;54.90
60495;DHT22;46342;49.046;11.920;2023-06-24T09:26:44;24.20;54.40
60495;DHT22;46342;49.046;11.920;2023-06-24T09:29:12;24.30;54.50
60495;DHT22;46342;49.046;11.920;2023-06-24T09:31:47;24.40;54.40
60495;DHT22;46342;49.046;11.920;2023-06-24T09:34:13;24.50;53.60
60495;DHT22;46342;49.046;11.920;2023-06-24T09:36:43;24.60;54.20
60495;DHT22;46342;49.046;11.920;2023-06-24T09:39:10;24.70;53.60
60495;DHT22;46342;49.046;11.920;2023-06-24T09:41:36;24.70;54.00
60495;DHT22;46342;49.046;11.920;2023-06-24T09:44:02;24.90;54.00
60495;DHT22;46342;49.046;11.920;2023-06-24T09:46:30;24.90;53.40
60495;DHT22;46342;49.046;11.920;2023-06-24T09:48:55;25.00;53.10
60495;DHT22;46342;49.046;11.920;2023-06-24T09:51:22;25.10;53.30
60495;DHT22;46342;49.046;11.920;2023-06-24T09:53:48;25.10;52.90
60495;DHT22;46342;49.046;11.920;2023-06-24T09:56:17;25.30;52.80
60495;DHT22;46342;49.046;11.920;2023-06-24T09:58:44;25.30;53.00
60495;DHT22;46342;49.046;11.920;2023-06-24T10:01:11;25.40;52.80
60495;DHT22;46342;49.046;11.920;2023-06-24T10:03:39;25.40;52.40
60495;DHT22;46342;49.046;11.920;2023-06-24T10:06:05;25.50;52.10
60495;DHT22;46342;49.046;11.920;2023-06-24T10:08:31;25.50;52.20
60495;DHT22;46342;49.046;11.920;2023-06-24T10:11:00;25.60;52.10
60495;DHT22;46342;49.046;11.920;2023-06-24T10:13:27;25.70;52.20
60495;DHT22;46342;49.046;11.920;2023-06-24T10:15:56;25.80;51.80
60495;DHT22;46342;49.046;11.920;2023-06-24T10:20:56;26.00;50.50
60495;DHT22;46342;49.046;11.920;2023-06-24T10:23:21;26.10;51.20
60495;DHT22;46342;49.046;11.920;2023-06-24T10:25:48;26.10;51.00
60495;DHT22;46342;49.046;11.920;2023-06-24T10:28:13;26.20;51.50
60495;DHT22;46342;49.046;11.920;2023-06-24T10:30:39;26.30;50.90
60495;DHT22;46342;49.046;11.920;2023-06-24T10:33:10;26.40;50.80
60495;DHT22;46342;49.046;11.920;2023-06-24T10:35:41;26.50;49.60
60495;DHT22;46342;49.046;11.920;2023-06-24T10:38:10;26.60;49.80
60495;DHT22;46342;49.046;11.920;2023-06-24T10:40:43;26.70;49.90
60495;DHT22;46342;49.046;11.920;2023-06-24T10:45:53;26.90;47.60
60495;DHT22;46342;49.046;11.920;2023-06-24T10:48:19;27.00;49.40
60495;DHT22;46342;49.046;11.920;2023-06-24T10:50:48;27.00;49.40
60495;DHT22;46342;49.046;11.920;2023-06-24T10:53:17;27.10;49.60
60495;DHT22;46342;49.046;11.920;2023-06-24T10:55:45;27.20;49.50
60495;DHT22;46342;49.046;11.920;2023-06-24T10:58:13;27.30;48.70
60495;DHT22;46342;49.046;11.920;2023-06-24T11:00:41;27.30;48.80
60495;DHT22;46342;49.046;11.920;2023-06-24T11:03:12;27.40;48.20
60495;DHT22;46342;49.046;11.920;2023-06-24T11:05:42;27.40;46.90
60495;DHT22;46342;49.046;11.920;2023-06-24T11:08:09;27.50;47.10
60495;DHT22;46342;49.046;11.920;2023-06-24T11:10:50;27.50;47.30
60495;DHT22;46342;49.046;11.920;2023-06-24T11:13:20;27.50;46.10
60495;DHT22;46342;49.046;11.920;2023-06-24T11:15:45;27.60;46.60
60495;DHT22;46342;49.046;11.920;2023-06-24T11:18:11;27.60;47.20
60495;DHT22;46342;49.046;11.920;2023-06-24T11:20:38;27.70;47.10
60495;DHT22;46342;49.046;11.920;2023-06-24T11:23:09;27.80;46.90
60495;DHT22;46342;49.046;11.920;2023-06-24T11:25:42;27.90;46.20
60495;DHT22;46342;49.046;11.920;2023-06-24T11:28:18;27.90;45.60
60495;DHT22;46342;49.046;11.920;2023-06-24T11:30:44;28.00;44.80
60495;DHT22;46342;49.046;11.920;2023-06-24T11:33:10;28.00;45.80
60495;DHT22;46342;49.046;11.920;2023-06-24T11:35:35;28.00;45.70
60495;DHT22;46342;49.046;11.920;2023-06-24T11:38:02;28.00;45.80
60495;DHT22;46342;49.046;11.920;2023-06-24T11:40:30;28.10;45.80
60495;DHT22;46342;49.046;11.920;2023-06-24T11:42:56;28.10;45.30
60495;DHT22;46342;49.046;11.920;2023-06-24T11:45:22;28.30;45.70
60495;DHT22;46342;49.046;11.920;2023-06-24T11:47:47;28.30;45.60
60495;DHT22;46342;49.046;11.920;2023-06-24T11:50:14;28.40;45.60
60495;DHT22;46342;49.046;11.920;2023-06-24T11:52:48;28.50;45.30
60495;DHT22;46342;49.046;11.920;2023-06-24T11:55:21;28.50;45.00
60495;DHT22;46342;49.046;11.920;2023-06-24T12:00:25;28.70;43.50
60495;DHT22;46342;49.046;11.920;2023-06-24T12:02:53;28.70;44.50
60495;DHT22;46342;49.046;11.920;2023-06-24T12:07:56;28.80;42.90
60495;DHT22;46342;49.046;11.920;2023-06-24T12:10:22;28.80;44.00
60495;DHT22;46342;49.046;11.920;2023-06-24T12:12:48;28.80;43.80
60495;DHT22;46342;49.046;11.920;2023-06-24T12:15:14;28.80;44.40
60495;DHT22;46342;49.046;11.920;2023-06-24T12:17:39;28.90;43.70
60495;DHT22;46342;49.046;11.920;2023-06-24T12:20:06;28.90;43.50
60495;DHT22;46342;49.046;11.920;2023-06-24T12:22:31;29.00;43.20
60495;DHT22;46342;49.046;11.920;2023-06-24T12:24:57;29.00;43.10
60495;DHT22;46342;49.046;11.920;2023-06-24T12:27:22;29.00;42.80
60495;DHT22;46342;49.046;11.920;2023-06-24T12:29:48;29.10;42.80
60495;DHT22;46342;49.046;11.920;2023-06-24T12:32:13;29.10;42.70
60495;DHT22;46342;49.046;11.920;2023-06-24T12:34:39;29.20;42.50
60495;DHT22;46342;49.046;11.920;2023-06-24T12:37:05;29.20;42.50
60495;DHT22;46342;49.046;11.920;2023-06-24T12:39:30;29.20;42.30
60495;DHT22;46342;49.046;11.920;2023-06-24T12:41:56;29.30;42.90
60495;DHT22;46342;49.046;11.920;2023-06-24T12:44:21;29.30;42.10
60495;DHT22;46342;49.046;11.920;2023-06-24T12:46:47;29.40;42.30
60495;DHT22;46342;49.046;11.920;2023-06-24T12:49:13;29.40;42.00
60495;DHT22;46342;49.046;11.920;2023-06-24T12:51:38;29.50;42.00
60495;DHT22;46342;49.046;11.920;2023-06-24T12:54:04;29.50;41.80
60495;DHT22;46342;49.046;11.920;2023-06-24T12:56:29;29.50;41.60
60495;DHT22;46342;49.046;11.920;2023-06-24T12:58:55;29.50;41.50
60495;DHT22;46342;49.046;11.920;2023-06-24T13:01:20;29.50;41.50
60495;DHT22;46342;49.046;11.920;2023-06-24T13:03:46;29.50;41.30
60495;DHT22;46342;49.046;11.920;2023-06-24T13:06:11;29.50;41.40
60495;DHT22;46342;49.046;11.920;2023-06-24T13:08:39;29.50;41.40
60495;DHT22;46342;49.046;11.920;2023-06-24T13:11:04;29.60;41.20
60495;DHT22;46342;49.046;11.920;2023-06-24T13:13:30;29.70;40.90
60495;DHT22;46342;49.046;11.920;2023-06-24T13:15:56;29.70;40.80
60495;DHT22;46342;49.046;11.920;2023-06-24T13:18:21;29.80;40.70
60495;DHT22;46342;49.046;11.920;2023-06-24T13:20:47;29.80;40.50
60495;DHT22;46342;49.046;11.920;2023-06-24T13:23:12;29.80;40.20
60495;DHT22;46342;49.046;11.920;2023-06-24T13:25:38;29.80;40.00
60495;DHT22;46342;49.046;11.920;2023-06-24T13:28:04;29.80;40.00
60495;DHT22;46342;49.046;11.920;2023-06-24T13:30:29;29.80;40.00
60495;DHT22;46342;49.046;11.920;2023-06-24T13:32:55;29.80;39.80
60495;DHT22;46342;49.046;11.920;2023-06-24T13:35:20;29.80;39.80
60495;DHT22;46342;49.046;11.920;2023-06-24T13:37:46;29.90;39.90
60495;DHT22;46342;49.046;11.920;2023-06-24T13:40:11;29.90;39.90
60495;DHT22;46342;49.046;11.920;2023-06-24T13:42:37;29.90;39.90
60495;DHT22;46342;49.046;11.920;2023-06-24T13:45:04;30.00;39.90
60495;DHT22;46342;49.046;11.920;2023-06-24T13:47:30;30.10;39.60
60495;DHT22;46342;49.046;11.920;2023-06-24T13:49:56;30.20;39.90
60495;DHT22;46342;49.046;11.920;2023-06-24T13:52:22;30.20;39.90
60495;DHT22;46342;49.046;11.920;2023-06-24T13:54:48;30.20;39.60
60495;DHT22;46342;49.046;11.920;2023-06-24T13:57:13;30.20;39.40
60495;DHT22;46342;49.046;11.920;2023-06-24T13:59:41;30.20;39.00
60495;DHT22;46342;49.046;11.920;2023-06-24T14:02:07;30.20;38.90
60495;DHT22;46342;49.046;11.920;2023-06-24T14:04:35;30.30;38.90
60495;DHT22;46342;49.046;11.920;2023-06-24T14:07:00;30.30;38.70
60495;DHT22;46342;49.046;11.920;2023-06-24T14:09:27;30.30;38.70
60495;DHT22;46342;49.046;11.920;2023-06-24T14:11:53;30.30;38.60
60495;DHT22;46342;49.046;11.920;2023-06-24T14:14:21;30.20;38.40
60495;DHT22;46342;49.046;11.920;2023-06-24T14:16:47;30.20;38.40
60495;DHT22;46342;49.046;11.920;2023-06-24T14:19:12;30.20;38.30
60495;DHT22;46342;49.046;11.920;2023-06-24T14:21:38;30.10;38.30
60495;DHT22;46342;49.046;11.920;2023-06-24T14:24:05;30.10;38.40
60495;DHT22;46342;49.046;11.920;2023-06-24T14:26:32;30.10;38.10
60495;DHT22;46342;49.046;11.920;2023-06-24T14:28:57;30.10;38.20
60495;DHT22;46342;49.046;11.920;2023-06-24T14:31:23;30.10;38.20
60495;DHT22;46342;49.046;11.920;2023-06-24T14:33:48;30.10;38.20
60495;DHT22;46342;49.046;11.920;2023-06-24T14:36:14;30.20;38.10
60495;DHT22;46342;49.046;11.920;2023-06-24T14:38:40;30.20;38.10
60495;DHT22;46342;49.046;11.920;2023-06-24T14:41:06;30.30;38.00
60495;DHT22;46342;49.046;11.920;2023-06-24T14:43:33;30.30;37.90
60495;DHT22;46342;49.046;11.920;2023-06-24T14:45:58;30.40;37.80
60495;DHT22;46342;49.046;11.920;2023-06-24T14:48:24;30.50;37.60
60495;DHT22;46342;49.046;11.920;2023-06-24T14:50:50;30.60;37.60
60495;DHT22;46342;49.046;11.920;2023-06-24T14:53:15;30.60;37.30
60495;DHT22;46342;49.046;11.920;2023-06-24T14:55:41;30.60;37.30
60495;DHT22;46342;49.046;11.920;2023-06-24T14:58:06;30.60;37.40
60495;DHT22;46342;49.046;11.920;2023-06-24T15:00:32;30.60;37.40
60495;DHT22;46342;49.046;11.920;2023-06-24T15:02:57;30.60;37.40
60495;DHT22;46342;49.046;11.920;2023-06-24T15:05:23;30.60;37.40
60495;DHT22;46342;49.046;11.920;2023-06-24T15:07:49;30.60;37.10
60495;DHT22;46342;49.046;11.920;2023-06-24T15:10:14;30.60;36.90
60495;DHT22;46342;49.046;11.920;2023-06-24T15:12:40;30.70;37.00
60495;DHT22;46342;49.046;11.920;2023-06-24T15:15:06;30.70;37.10
60495;DHT22;46342;49.046;11.920;2023-06-24T15:17:31;30.80;36.90
60495;DHT22;46342;49.046;11.920;2023-06-24T15:20:00;30.90;36.80
60495;DHT22;46342;49.046;11.920;2023-06-24T15:22:25;30.90;36.60
60495;DHT22;46342;49.046;11.920;2023-06-24T15:24:51;31.00;36.40
60495;DHT22;46342;49.046;11.920;2023-06-24T15:27:16;31.10;36.10
60495;DHT22;46342;49.046;11.920;2023-06-24T15:29:42;31.10;36.10
60495;DHT22;46342;49.046;11.920;2023-06-24T15:32:08;31.10;36.10
60495;DHT22;46342;49.046;11.920;2023-06-24T15:34:33;31.10;35.90